Time;durP1;ratioP1;P1;durP2;ratioP2;P2;SDS_P1;SDS_P2;PMS_P1;PMS_P2;Temp;Humidity;BMP_temperature;BMP_pressure;BME280_temperature;BME280_humidity;BME280_pressure;Samples;Min_cycle;Max_cycle;Signal;HPM_P1;HPM_P2
2022/10/28 00:00:01;;;;;;;5.22;2.47;;;14.30;99.90;;;;;;4963969;28;20410;-73
2022/10/28 00:02:27;;;;;;;6.00;2.95;;;14.40;99.90;;;;;;4954328;28;20753;-73
2022/10/28 00:04:52;;;;;;;4.87;2.50;;;14.30;99.90;;;;;;4953254;28;20405;-73
2022/10/28 00:07:18;;;;;;;6.00;2.50;;;14.40;99.90;;;;;;4955384;28;20412;-74
2022/10/28 00:09:43;;;;;;;6.88;2.65;;;14.40;99.90;;;;;;4954563;28;20397;-74
2022/10/28 00:12:09;;;;;;;6.00;2.20;;;14.30;99.90;;;;;;4964358;28;20404;-73
2022/10/28 00:14:34;;;;;;;5.90;2.70;;;14.40;99.90;;;;;;4973319;28;20473;-73
2022/10/28 00:17:00;;;;;;;5.10;2.17;;;14.30;99.90;;;;;;4973644;28;20392;-74
2022/10/28 00:19:25;;;;;;;8.00;2.50;;;14.20;99.90;;;;;;4972409;28;20388;-74
2022/10/28 00:21:51;;;;;;;6.40;2.70;;;14.30;99.90;;;;;;4969397;28;20408;-74
2022/10/28 00:24:16;;;;;;;6.72;2.50;;;14.30;99.90;;;;;;4988058;28;20463;-74
2022/10/28 00:26:42;;;;;;;6.77;3.50;;;14.30;99.90;;;;;;4960169;28;20402;-73
2022/10/28 00:29:16;;;;;;;6.30;2.53;;;14.30;99.90;;;;;;4954083;28;20817;-73
2022/10/28 00:31:43;;;;;;;5.10;2.53;;;14.40;99.90;;;;;;4954138;28;20401;-73
2022/10/28 00:34:12;;;;;;;4.68;2.33;;;14.40;99.90;;;;;;4953593;28;20484;-73
2022/10/28 00:36:40;;;;;;;6.38;2.80;;;14.50;99.90;;;;;;4964271;28;20882;-74
2022/10/28 00:39:21;;;;;;;7.22;2.80;;;14.50;99.90;;;;;;4973332;28;20467;-74
2022/10/28 00:41:55;;;;;;;7.57;2.50;;;14.50;99.90;;;;;;4954921;28;20472;-73
2022/10/28 00:44:44;;;;;;;7.18;2.58;;;14.50;99.90;;;;;;4953379;28;20401;-73
2022/10/28 00:47:27;;;;;;;8.17;3.10;;;14.60;99.90;;;;;;4953853;28;20405;-73
2022/10/28 00:50:21;;;;;;;5.50;2.70;;;14.50;99.90;;;;;;4955978;28;20405;-74
2022/10/28 00:52:52;;;;;;;5.95;3.15;;;14.40;99.90;;;;;;4965062;28;20400;-73
2022/10/28 00:55:19;;;;;;;8.15;2.40;;;14.30;99.90;;;;;;4972903;28;20423;-74
2022/10/28 00:57:45;;;;;;;6.45;2.45;;;14.30;99.90;;;;;;4970318;28;20404;-74
2022/10/28 01:00:11;;;;;;;6.28;2.65;;;14.20;99.90;;;;;;4972866;28;20396;-73
2022/10/28 01:02:44;;;;;;;7.28;3.20;;;14.20;99.90;;;;;;4971978;28;20874;-73
2022/10/28 01:05:12;;;;;;;5.90;2.70;;;14.20;99.90;;;;;;4963608;28;20409;-73
2022/10/28 01:07:38;;;;;;;8.20;2.53;;;14.10;99.90;;;;;;4953329;28;20477;-73
2022/10/28 01:10:04;;;;;;;8.00;3.10;;;14.10;99.90;;;;;;4953373;28;20488;-73
2022/10/28 01:13:03;;;;;;;7.28;2.97;;;14.10;99.90;;;;;;4954907;28;20397;-73
2022/10/28 01:15:34;;;;;;;5.65;3.20;;;14.10;99.90;;;;;;4972538;28;20499;-73
2022/10/28 01:18:11;;;;;;;7.85;2.50;;;14.00;99.90;;;;;;4971294;28;20404;-73
2022/10/28 01:20:36;;;;;;;8.65;2.42;;;13.90;99.90;;;;;;4971396;28;20451;-73
2022/10/28 01:23:27;;;;;;;5.15;2.80;;;13.90;99.90;;;;;;4952403;28;20784;-73
2022/10/28 01:26:04;;;;;;;6.30;2.90;;;13.80;99.90;;;;;;4953105;28;20386;-74
2022/10/28 01:29:08;;;;;;;7.30;2.90;;;13.90;99.90;;;;;;4953055;28;20504;-73
2022/10/28 01:31:47;;;;;;;7.50;2.60;;;13.90;99.90;;;;;;4959714;28;20788;-73
2022/10/28 01:34:18;;;;;;;6.30;2.33;;;13.90;99.90;;;;;;4956918;28;20418;-73
2022/10/28 01:36:53;;;;;;;6.05;2.25;;;13.90;99.90;;;;;;4952931;28;20880;-74
2022/10/28 01:39:31;;;;;;;8.98;2.88;;;14.00;99.90;;;;;;4952942;28;20404;-73
2022/10/28 01:42:05;;;;;;;7.05;2.50;;;14.10;99.90;;;;;;4967302;28;20400;-73
2022/10/28 01:45:08;;;;;;;7.10;3.10;;;14.10;99.90;;;;;;4971635;28;20390;-73
2022/10/28 01:47:41;;;;;;;6.22;2.90;;;14.00;99.90;;;;;;4963061;28;20408;-74
2022/10/28 01:50:34;;;;;;;6.70;2.50;;;14.00;99.90;;;;;;4962551;28;20402;-73
2022/10/28 01:53:12;;;;;;;6.93;2.70;;;14.00;99.90;;;;;;4953310;28;20453;-73
2022/10/28 01:55:41;;;;;;;6.00;2.30;;;14.20;99.90;;;;;;4951238;28;20438;-73
2022/10/28 01:58:09;;;;;;;6.22;2.72;;;14.30;99.90;;;;;;4952476;28;20477;-73
2022/10/28 02:00:36;;;;;;;5.78;2.50;;;14.20;99.90;;;;;;4960738;28;20487;-74
2022/10/28 02:03:04;;;;;;;8.13;2.50;;;14.10;99.90;;;;;;4971600;28;20763;-73
2022/10/28 02:05:43;;;;;;;5.18;2.67;;;14.10;99.90;;;;;;4971052;28;20932;-74
2022/10/28 02:08:44;;;;;;;5.82;2.33;;;14.20;99.90;;;;;;4951196;28;20394;-74
2022/10/28 02:11:51;;;;;;;9.85;3.30;;;14.10;99.90;;;;;;4945542;28;20932;-74
2022/10/28 02:14:28;;;;;;;6.80;2.60;;;14.10;99.90;;;;;;4951109;28;20429;-73
2022/10/28 02:17:16;;;;;;;8.73;2.47;;;14.10;99.90;;;;;;4963032;28;20411;-74
2022/10/28 02:19:50;;;;;;;6.10;2.20;;;14.10;99.90;;;;;;4971586;28;20478;-73
2022/10/28 02:22:27;;;;;;;7.28;3.17;;;14.20;99.90;;;;;;4957365;28;20390;-73
2022/10/28 02:25:04;;;;;;;6.53;2.72;;;14.20;99.90;;;;;;4952109;29;20793;-73
2022/10/28 02:27:37;;;;;;;5.20;2.30;;;14.20;99.90;;;;;;4953012;28;20405;-73
2022/10/28 02:30:11;;;;;;;6.03;2.58;;;14.20;99.90;;;;;;4952097;28;20413;-73
2022/10/28 02:32:42;;;;;;;7.77;2.50;;;14.20;99.90;;;;;;4952093;28;20382;-74
2022/10/28 02:35:16;;;;;;;5.93;2.50;;;14.30;99.90;;;;;;4953366;28;20413;-73
2022/10/28 02:37:44;;;;;;;5.93;2.67;;;14.30;99.90;;;;;;4971597;28;20384;-73
2022/10/28 02:40:15;;;;;;;5.63;2.50;;;14.30;99.90;;;;;;4971277;28;20462;-74
2022/10/28 02:42:49;;;;;;;7.40;2.80;;;14.30;99.90;;;;;;4970271;28;20961;-73
2022/10/28 02:45:21;;;;;;;6.90;2.53;;;14.30;99.90;;;;;;4952726;28;20417;-74
2022/10/28 02:48:22;;;;;;;6.55;2.70;;;14.40;99.90;;;;;;4952168;28;20480;-73
2022/10/28 02:50:55;;;;;;;5.25;2.53;;;14.30;99.90;;;;;;4940609;28;20487;-73
2022/10/28 02:53:28;;;;;;;5.47;2.63;;;14.30;99.90;;;;;;4954158;28;20428;-73
2022/10/28 02:55:56;;;;;;;8.10;3.10;;;14.40;99.90;;;;;;4971161;28;20436;-73
2022/10/28 02:58:21;;;;;;;5.97;2.67;;;14.40;99.90;;;;;;4971387;28;20856;-73
2022/10/28 03:00:48;;;;;;;7.60;2.57;;;14.30;99.90;;;;;;4971260;28;20420;-73
2022/10/28 03:03:14;;;;;;;6.43;3.03;;;14.30;99.90;;;;;;4960740;28;20484;-73
2022/10/28 03:05:39;;;;;;;6.13;2.43;;;14.30;99.90;;;;;;4951744;28;20936;-73
2022/10/28 03:08:05;;;;;;;7.60;2.87;;;14.30;99.90;;;;;;4952085;28;20422;-73
2022/10/28 03:10:30;;;;;;;6.45;2.30;;;14.40;99.90;;;;;;4951863;28;20400;-73
2022/10/28 03:12:56;;;;;;;7.37;2.77;;;14.40;99.90;;;;;;4958178;28;20464;-73
2022/10/28 03:15:21;;;;;;;8.77;2.60;;;14.30;99.90;;;;;;4970998;28;20442;-73
2022/10/28 03:17:47;;;;;;;12.90;2.80;;;14.30;99.90;;;;;;4968988;28;20879;-73
2022/10/28 03:20:13;;;;;;;9.27;2.53;;;14.40;99.90;;;;;;4951743;28;20421;-73
2022/10/28 03:22:38;;;;;;;5.70;2.10;;;14.30;99.90;;;;;;4951423;28;20398;-73
2022/10/28 03:25:04;;;;;;;7.40;2.50;;;14.50;99.90;;;;;;4951881;28;20828;-73
2022/10/28 03:27:30;;;;;;;8.55;2.58;;;14.50;99.90;;;;;;4955241;28;20398;-73
2022/10/28 03:29:55;;;;;;;4.60;2.60;;;14.60;99.90;;;;;;4971899;28;20396;-73
2022/10/28 03:32:21;;;;;;;7.00;2.20;;;14.70;99.90;;;;;;4957459;28;20440;-73
2022/10/28 03:34:46;;;;;;;7.97;2.17;;;14.70;99.90;;;;;;4954773;28;20847;-73
2022/10/28 03:37:12;;;;;;;6.85;2.90;;;14.70;99.90;;;;;;4955195;28;20420;-73
2022/10/28 03:39:38;;;;;;;8.70;2.40;;;14.70;99.90;;;;;;4955131;28;20386;-73
2022/10/28 03:42:04;;;;;;;6.18;2.22;;;14.60;99.90;;;;;;4962407;28;20757;-73
2022/10/28 03:44:29;;;;;;;6.73;2.30;;;14.70;99.90;;;;;;4954467;28;20404;-73
2022/10/28 03:46:55;;;;;;;12.30;2.80;;;14.70;99.90;;;;;;4954828;28;20954;-73
2022/10/28 03:49:20;;;;;;;5.82;2.80;;;14.70;99.90;;;;;;4954860;28;20436;-73
2022/10/28 03:51:46;;;;;;;5.90;2.60;;;14.70;99.90;;;;;;4957314;28;20395;-73
2022/10/28 03:54:11;;;;;;;11.07;2.70;;;14.70;99.90;;;;;;4973198;28;20415;-74
2022/10/28 03:56:39;;;;;;;6.97;2.17;;;14.60;99.90;;;;;;4974110;28;20404;-74
2022/10/28 03:59:05;;;;;;;4.27;1.97;;;14.60;99.90;;;;;;4974032;28;20387;-74
2022/10/28 04:01:30;;;;;;;6.32;2.15;;;14.70;99.90;;;;;;4958720;28;20402;-74
2022/10/28 04:03:56;;;;;;;8.00;2.20;;;14.80;99.90;;;;;;4953080;28;20464;-74
2022/10/28 04:06:22;;;;;;;7.20;1.90;;;14.80;99.90;;;;;;4954627;28;20394;-74
2022/10/28 04:08:47;;;;;;;7.35;2.30;;;14.80;99.90;;;;;;4972952;28;20407;-74
2022/10/28 04:11:13;;;;;;;5.90;2.17;;;14.90;99.90;;;;;;4973743;28;20393;-74
2022/10/28 04:13:38;;;;;;;7.60;2.10;;;14.90;99.90;;;;;;4958351;28;20422;-74
2022/10/28 04:16:04;;;;;;;4.32;1.90;;;14.90;99.90;;;;;;4953198;28;20784;-74
2022/10/28 04:18:30;;;;;;;7.30;2.50;;;15.00;99.90;;;;;;4952901;28;20417;-74
2022/10/28 04:20:56;;;;;;;3.60;1.98;;;14.90;99.90;;;;;;4950947;28;20455;-74
2022/10/28 04:23:22;;;;;;;5.30;2.10;;;15.00;99.90;;;;;;4966076;28;20400;-74
2022/10/28 04:25:52;;;;;;;8.75;2.50;;;15.00;99.90;;;;;;4966680;28;20398;-74
2022/10/28 04:28:17;;;;;;;5.28;2.20;;;15.10;99.90;;;;;;4950716;29;20426;-74
2022/10/28 04:30:46;;;;;;;4.68;2.00;;;15.10;99.90;;;;;;4939370;29;20460;-74
2022/10/28 04:33:11;;;;;;;5.10;2.10;;;15.00;99.90;;;;;;4952473;28;20752;-74
2022/10/28 04:35:38;;;;;;;5.77;1.87;;;15.10;99.90;;;;;;4942001;28;20431;-74
2022/10/28 04:38:03;;;;;;;7.07;2.00;;;15.20;99.90;;;;;;4950437;28;20416;-74
2022/10/28 04:40:29;;;;;;;4.40;2.10;;;15.30;99.90;;;;;;4949366;28;20789;-74
2022/10/28 04:42:55;;;;;;;5.50;2.27;;;15.20;99.90;;;;;;4958211;28;20421;-74
2022/10/28 04:45:20;;;;;;;5.10;2.40;;;15.20;99.90;;;;;;4950546;28;20425;-74
2022/10/28 04:47:46;;;;;;;6.53;2.00;;;15.30;99.90;;;;;;4964010;28;20917;-74
2022/10/28 04:50:12;;;;;;;7.55;2.50;;;15.40;99.90;;;;;;4951690;29;20393;-74
2022/10/28 04:52:37;;;;;;;3.22;2.22;;;15.60;99.90;;;;;;4950274;28;21076;-74
2022/10/28 04:55:03;;;;;;;5.20;2.00;;;15.40;99.90;;;;;;4951884;29;20433;-75
2022/10/28 04:57:29;;;;;;;7.28;2.10;;;15.30;99.90;;;;;;4952767;28;20398;-75
2022/10/28 04:59:54;;;;;;;8.35;2.42;;;15.30;99.90;;;;;;4948996;29;20476;-75
2022/10/28 05:02:21;;;;;;;8.37;3.00;;;15.40;99.90;;;;;;4951018;28;20417;-75
2022/10/28 05:04:47;;;;;;;7.93;2.70;;;15.30;99.90;;;;;;4945883;28;20513;-75
2022/10/28 05:07:12;;;;;;;7.03;2.70;;;15.30;99.90;;;;;;4949258;28;20416;-75
2022/10/28 05:09:38;;;;;;;4.45;2.28;;;15.20;99.90;;;;;;4948944;28;20431;-74
2022/10/28 05:12:04;;;;;;;4.78;2.30;;;15.20;99.90;;;;;;4947032;28;20592;-74
2022/10/28 05:14:29;;;;;;;5.80;2.10;;;15.10;99.90;;;;;;4949495;28;20410;-74
2022/10/28 05:16:55;;;;;;;8.10;2.23;;;15.10;99.90;;;;;;4948395;28;20417;-75
2022/10/28 05:19:20;;;;;;;4.90;2.10;;;15.20;99.90;;;;;;4951637;28;20414;-74
2022/10/28 05:21:46;;;;;;;7.93;2.13;;;15.30;99.90;;;;;;4951407;28;20414;-74
2022/10/28 05:24:11;;;;;;;13.30;6.80;;;15.30;99.90;;;;;;4945028;29;20529;-74
2022/10/28 05:26:37;;;;;;;4.90;1.92;;;15.20;99.90;;;;;;4968920;23;20450;-72
2022/10/28 05:29:02;;;;;;;6.20;3.20;;;15.40;99.90;;;;;;4945694;29;20445;-73
2022/10/28 05:31:28;;;;;;;4.83;2.53;;;15.30;99.90;;;;;;4952670;28;20500;-72
2022/10/28 05:33:54;;;;;;;4.03;2.10;;;15.30;99.90;;;;;;4950128;29;20421;-73
2022/10/28 05:36:19;;;;;;;3.53;2.00;;;15.30;99.90;;;;;;4946743;28;20428;-72
2022/10/28 05:38:45;;;;;;;7.50;2.70;;;15.30;99.90;;;;;;4946825;29;20401;-72
2022/10/28 05:41:11;;;;;;;6.30;1.97;;;15.30;99.90;;;;;;4951349;28;20861;-72
2022/10/28 05:43:36;;;;;;;5.45;2.10;;;15.50;99.90;;;;;;4952502;28;20378;-72
2022/10/28 05:46:03;;;;;;;4.75;2.30;;;15.40;99.90;;;;;;4952670;29;20436;-73
2022/10/28 05:48:28;;;;;;;7.88;2.60;;;15.30;99.90;;;;;;4952551;28;20408;-72
2022/10/28 05:50:54;;;;;;;7.20;2.10;;;15.40;99.90;;;;;;4951525;29;20891;-73
2022/10/28 05:53:19;;;;;;;5.90;2.22;;;15.40;99.90;;;;;;4952314;28;20405;-73
2022/10/28 05:55:45;;;;;;;5.10;2.00;;;15.60;99.90;;;;;;4952673;28;20824;-72
2022/10/28 05:58:10;;;;;;;7.72;2.65;;;15.50;99.90;;;;;;4952238;28;20919;-73
2022/10/28 06:00:36;;;;;;;5.97;2.40;;;15.50;99.90;;;;;;4952018;28;20406;-72
2022/10/28 06:03:05;;;;;;;8.50;2.87;;;15.60;99.90;;;;;;4951812;28;20386;-72
2022/10/28 06:05:31;;;;;;;4.43;2.60;;;15.50;99.90;;;;;;4950440;29;20926;-72
2022/10/28 06:07:56;;;;;;;8.97;5.53;;;15.40;99.90;;;;;;4947166;28;20414;-74
2022/10/28 06:10:22;;;;;;;10.30;4.27;;;15.40;99.90;;;;;;4952014;28;20481;-73
2022/10/28 06:12:47;;;;;;;5.85;2.17;;;15.50;99.90;;;;;;4946725;28;20412;-73
2022/10/28 06:15:13;;;;;;;7.17;2.30;;;15.50;99.90;;;;;;4944176;29;20419;-72
2022/10/28 06:17:39;;;;;;;5.35;2.55;;;15.50;99.90;;;;;;4952153;28;20389;-73
2022/10/28 06:20:05;;;;;;;6.28;2.40;;;15.50;99.90;;;;;;4952492;28;20397;-73
2022/10/28 06:22:31;;;;;;;7.43;2.20;;;15.40;99.90;;;;;;4950524;29;20694;-72
2022/10/28 06:24:56;;;;;;;7.05;2.45;;;15.30;99.90;;;;;;4945041;29;20473;-73
2022/10/28 06:27:22;;;;;;;5.63;2.50;;;15.20;99.90;;;;;;4952350;28;20409;-73
2022/10/28 06:29:47;;;;;;;4.00;2.50;;;15.10;99.90;;;;;;4967833;28;20406;-72
2022/10/28 06:32:13;;;;;;;6.47;2.43;;;15.10;99.90;;;;;;4953075;28;20476;-73
2022/10/28 06:34:38;;;;;;;5.00;2.25;;;15.10;99.90;;;;;;4952767;28;20963;-74
2022/10/28 06:37:05;;;;;;;3.70;2.30;;;15.20;99.90;;;;;;4952506;28;20764;-73
2022/10/28 06:39:32;;;;;;;4.57;2.50;;;15.40;99.90;;;;;;4953165;28;20923;-74
2022/10/28 06:41:57;;;;;;;5.25;2.35;;;15.30;99.90;;;;;;4953709;28;20397;-73
2022/10/28 06:44:23;;;;;;;8.70;2.60;;;15.30;99.90;;;;;;4952248;28;20452;-73
2022/10/28 06:46:48;;;;;;;5.80;2.47;;;15.30;99.90;;;;;;4952229;28;20506;-73
2022/10/28 06:49:14;;;;;;;5.40;2.10;;;15.40;99.90;;;;;;4952398;28;20405;-73
2022/10/28 06:51:39;;;;;;;6.13;2.33;;;15.50;99.90;;;;;;4948206;28;20460;-74
2022/10/28 06:54:05;;;;;;;6.97;2.50;;;15.50;99.90;;;;;;4953269;28;20956;-73
2022/10/28 06:56:30;;;;;;;7.10;2.90;;;15.60;99.90;;;;;;4934310;29;20410;-73
2022/10/28 06:58:56;;;;;;;5.63;2.13;;;15.60;99.90;;;;;;4942498;29;20394;-73
2022/10/28 07:01:21;;;;;;;6.50;2.50;;;15.60;99.90;;;;;;4956569;28;20404;-73
2022/10/28 07:03:48;;;;;;;8.35;2.20;;;15.70;99.90;;;;;;4956371;28;20398;-73
2022/10/28 07:06:15;;;;;;;9.05;2.60;;;15.80;99.90;;;;;;4957275;28;20404;-73
2022/10/28 07:08:40;;;;;;;6.00;2.17;;;15.70;99.90;;;;;;4957490;28;20801;-73
2022/10/28 07:11:06;;;;;;;7.40;2.10;;;15.70;99.90;;;;;;4957186;28;20416;-73
2022/10/28 07:13:32;;;;;;;6.93;2.40;;;15.70;99.90;;;;;;4957662;28;20446;-74
2022/10/28 07:16:00;;;;;;;6.45;3.00;;;15.80;99.90;;;;;;4957216;28;20408;-73
2022/10/28 07:18:27;;;;;;;5.45;2.40;;;15.80;99.90;;;;;;4954363;28;20460;-73
2022/10/28 07:20:56;;;;;;;4.47;2.30;;;15.80;99.90;;;;;;4957132;28;20394;-73
2022/10/28 07:23:22;;;;;;;4.25;2.30;;;15.80;99.90;;;;;;4957097;28;20412;-73
2022/10/28 07:25:52;;;;;;;6.33;2.90;;;15.90;99.90;;;;;;4957691;28;20390;-73
2022/10/28 07:28:18;;;;;;;5.63;2.40;;;16.00;99.90;;;;;;4956707;28;20414;-73
2022/10/28 07:30:44;;;;;;;3.50;1.93;;;16.10;99.90;;;;;;4957373;29;20408;-73
2022/10/28 07:33:09;;;;;;;4.73;2.20;;;16.10;99.90;;;;;;4956421;28;20813;-72
2022/10/28 07:35:34;;;;;;;4.25;2.15;;;16.20;99.90;;;;;;4955548;29;20421;-73
2022/10/28 07:38:00;;;;;;;4.30;2.60;;;16.20;99.90;;;;;;4956591;28;20857;-73
2022/10/28 07:40:26;;;;;;;8.95;3.05;;;16.30;99.90;;;;;;4955289;29;20386;-74
2022/10/28 07:42:52;;;;;;;6.50;2.70;;;16.50;99.90;;;;;;4955063;28;20390;-75
2022/10/28 07:45:18;;;;;;;7.05;2.80;;;16.50;99.90;;;;;;4954031;29;20894;-75
2022/10/28 07:47:44;;;;;;;6.10;2.80;;;16.60;99.90;;;;;;4955022;28;20780;-75
2022/10/28 07:50:10;;;;;;;7.30;2.33;;;16.60;99.90;;;;;;4954786;28;20414;-75
2022/10/28 07:52:36;;;;;;;7.13;2.47;;;16.60;99.90;;;;;;4953504;28;20444;-74
2022/10/28 07:55:06;;;;;;;6.32;2.20;;;16.60;99.90;;;;;;4955072;28;20919;-75
2022/10/28 07:57:33;;;;;;;8.35;2.50;;;16.70;99.90;;;;;;4953535;28;20398;-75
2022/10/28 07:59:59;;;;;;;4.22;2.22;;;16.90;99.90;;;;;;4954447;28;20896;-75
2022/10/28 08:02:25;;;;;;;5.80;2.67;;;16.80;99.90;;;;;;4954344;28;20456;-74
2022/10/28 08:04:51;;;;;;;5.50;2.30;;;16.90;99.90;;;;;;4954597;28;20390;-75
2022/10/28 08:07:17;;;;;;;7.68;2.50;;;17.10;99.90;;;;;;4954500;28;20398;-76
2022/10/28 08:09:43;;;;;;;8.57;2.50;;;17.10;99.90;;;;;;4954302;28;20405;-75
2022/10/28 08:12:12;;;;;;;5.03;2.20;;;17.20;99.90;;;;;;4953112;28;20414;-75
2022/10/28 08:14:38;;;;;;;6.45;2.38;;;17.20;99.90;;;;;;4953034;28;20414;-75
2022/10/28 08:17:03;;;;;;;5.07;2.17;;;17.20;99.90;;;;;;4954325;28;20398;-75
2022/10/28 08:19:29;;;;;;;6.70;2.00;;;17.20;99.90;;;;;;4954408;28;20390;-75
2022/10/28 08:21:55;;;;;;;4.83;2.00;;;17.40;99.90;;;;;;4954119;28;20485;-75
2022/10/28 08:24:21;;;;;;;7.88;2.50;;;17.40;99.90;;;;;;4968805;28;20416;-75
2022/10/28 08:26:46;;;;;;;6.03;2.25;;;17.50;99.90;;;;;;4953920;28;20912;-75
2022/10/28 08:29:12;;;;;;;3.78;2.30;;;17.60;99.90;;;;;;4954412;28;20398;-75
2022/10/28 08:31:38;;;;;;;7.37;2.50;;;17.80;99.90;;;;;;4952820;29;20405;-74
2022/10/28 08:34:05;;;;;;;6.80;2.30;;;17.60;99.90;;;;;;4953839;28;20413;-75
2022/10/28 08:36:30;;;;;;;5.55;2.20;;;17.60;99.90;;;;;;4953659;29;20412;-75
2022/10/28 08:38:58;;;;;;;7.27;2.53;;;17.50;99.90;;;;;;4954129;28;20516;-75
2022/10/28 08:42:06;;;;;;;7.43;2.40;;;17.50;99.90;;;;;;4953810;28;20452;-75
2022/10/28 08:45:13;;;;;;;5.55;2.20;;;17.70;99.90;;;;;;4952488;28;20393;-75
2022/10/28 08:48:05;;;;;;;5.00;2.30;;;17.90;99.90;;;;;;4953205;29;20488;-75
2022/10/28 08:50:34;;;;;;;7.32;2.50;;;18.00;99.90;;;;;;4953528;28;20413;-75
2022/10/28 08:53:12;;;;;;;4.75;2.30;;;18.00;99.90;;;;;;4950877;28;20468;-75
2022/10/28 08:55:45;;;;;;;8.18;2.70;;;18.20;99.90;;;;;;4946975;29;20382;-72
2022/10/28 08:58:12;;;;;;;5.25;2.45;;;18.40;99.90;;;;;;4953750;28;20382;-73
2022/10/28 09:00:38;;;;;;;4.43;2.40;;;18.70;99.90;;;;;;4953322;28;20397;-72
2022/10/28 09:03:26;;;;;;;6.20;2.20;;;18.70;99.90;;;;;;4949961;28;20760;-73
2022/10/28 09:06:10;;;;;;;5.60;2.40;;;19.00;99.90;;;;;;4952904;28;20393;-73
2022/10/28 09:08:40;;;;;;;6.25;2.38;;;19.20;99.90;;;;;;4953581;28;20390;-74
2022/10/28 09:11:22;;;;;;;4.57;2.30;;;19.40;99.90;;;;;;4953314;28;20390;-74
2022/10/28 09:14:17;;;;;;;6.47;2.67;;;19.70;99.90;;;;;;4951860;28;20408;-74
2022/10/28 09:17:10;;;;;;;6.03;2.00;;;19.90;99.90;;;;;;4953387;28;20444;-73
2022/10/28 09:19:46;;;;;;;4.82;2.25;;;20.20;99.90;;;;;;4953189;28;20394;-74
2022/10/28 09:22:21;;;;;;;5.60;2.23;;;20.50;99.90;;;;;;4953046;28;20801;-74
2022/10/28 09:25:00;;;;;;;9.48;2.72;;;20.70;99.90;;;;;;4952541;28;20761;-73
2022/10/28 09:27:48;;;;;;;4.50;2.20;;;20.80;99.90;;;;;;4953222;28;20416;-73
2022/10/28 09:30:35;;;;;;;5.07;3.00;;;21.00;99.90;;;;;;4951740;28;20457;-74
2022/10/28 09:33:33;;;;;;;7.45;2.63;;;21.10;99.90;;;;;;4952903;28;20440;-73
2022/10/28 09:36:00;;;;;;;5.35;2.25;;;21.20;99.90;;;;;;4950439;29;20424;-72
2022/10/28 09:38:28;;;;;;;4.15;1.90;;;21.30;99.90;;;;;;4951561;29;20892;-73
2022/10/28 09:41:19;;;;;;;6.18;2.45;;;21.40;99.90;;;;;;4952635;28;20500;-73
2022/10/28 09:43:50;;;;;;;7.53;2.20;;;21.40;99.90;;;;;;4952602;29;20489;-73
2022/10/28 09:46:17;;;;;;;5.90;2.00;;;21.70;99.90;;;;;;4952695;28;20452;-73
2022/10/28 09:48:45;;;;;;;4.75;2.38;;;21.90;99.90;;;;;;4952716;28;20796;-73
2022/10/28 09:51:31;;;;;;;7.60;2.33;;;22.10;99.90;;;;;;4952872;28;20987;-73
2022/10/28 09:53:58;;;;;;;4.10;2.13;;;22.30;99.90;;;;;;4952378;28;20414;-74
2022/10/28 09:56:25;;;;;;;4.20;2.20;;;22.30;99.90;;;;;;4952193;28;20492;-74
2022/10/28 09:58:52;;;;;;;4.93;2.10;;;22.50;99.90;;;;;;4952721;28;20397;-74
2022/10/28 10:01:18;;;;;;;5.55;2.20;;;22.70;99.90;;;;;;4952516;28;20401;-74
2022/10/28 10:03:48;;;;;;;5.68;2.42;;;22.90;99.90;;;;;;4952252;28;20748;-74
2022/10/28 10:06:26;;;;;;;4.85;2.35;;;23.10;99.90;;;;;;4952395;28;21010;-74
2022/10/28 10:08:54;;;;;;;5.70;2.72;;;23.40;99.90;;;;;;4952527;28;20397;-73
2022/10/28 10:11:26;;;;;;;5.97;2.23;;;23.40;99.90;;;;;;4952570;28;20774;-74
2022/10/28 10:13:54;;;;;;;7.60;2.47;;;23.40;99.90;;;;;;4951872;28;20402;-73
2022/10/28 10:16:38;;;;;;;7.43;2.67;;;23.30;99.90;;;;;;4948169;29;20476;-74
2022/10/28 10:19:06;;;;;;;8.23;2.65;;;23.30;99.90;;;;;;4952452;28;20392;-73
2022/10/28 10:21:45;;;;;;;4.93;2.33;;;23.20;99.90;;;;;;4952427;28;20393;-73
2022/10/28 10:24:30;;;;;;;5.10;2.20;;;23.10;99.90;;;;;;4951591;28;20464;-73
2022/10/28 10:27:02;;;;;;;7.60;2.80;;;23.10;99.90;;;;;;4951729;28;20968;-73
2022/10/28 10:29:29;;;;;;;8.05;3.00;;;23.10;99.90;;;;;;4952378;28;20474;-74
2022/10/28 10:32:21;;;;;;;6.00;2.33;;;23.10;99.90;;;;;;4952368;28;20400;-73
2022/10/28 10:35:00;;;;;;;7.07;2.30;;;23.10;99.90;;;;;;4951718;28;20418;-73
2022/10/28 10:37:26;;;;;;;5.68;2.80;;;23.30;99.90;;;;;;4956285;28;20404;-72
2022/10/28 10:40:05;;;;;;;4.82;2.10;;;23.40;99.90;;;;;;4956073;28;20402;-74
2022/10/28 10:42:31;;;;;;;6.80;2.30;;;23.60;99.90;;;;;;4956135;28;20414;-73
2022/10/28 10:45:09;;;;;;;6.55;2.83;;;23.50;99.90;;;;;;4956024;28;20499;-72
2022/10/28 10:47:35;;;;;;;5.25;2.95;;;23.60;99.90;;;;;;4956015;28;20459;-74
2022/10/28 10:50:21;;;;;;;9.47;3.07;;;23.70;99.10;;;;;;4955753;28;20855;-74
2022/10/28 10:52:53;;;;;;;9.77;3.72;;;23.80;99.90;;;;;;4955096;28;20433;-74
2022/10/28 10:55:38;;;;;;;6.82;2.90;;;23.90;99.80;;;;;;4954299;29;20946;-73
2022/10/28 10:58:05;;;;;;;6.85;2.80;;;24.20;99.90;;;;;;4956007;28;20428;-73
2022/10/28 11:00:36;;;;;;;5.43;3.08;;;24.60;99.90;;;;;;4955287;28;20920;-74
2022/10/28 11:03:04;;;;;;;7.00;3.05;;;25.20;99.90;;;;;;4955687;28;20385;-72
2022/10/28 11:05:30;;;;;;;6.32;3.20;;;25.70;94.70;;;;;;4956045;28;20449;-74
2022/10/28 11:07:58;;;;;;;7.55;2.90;;;25.60;95.10;;;;;;4955820;28;20397;-74
2022/10/28 11:10:30;;;;;;;10.00;3.20;;;25.60;94.60;;;;;;4955347;28;20413;-74
2022/10/28 11:12:59;;;;;;;6.85;3.42;;;25.60;95.50;;;;;;4955425;28;20583;-73
2022/10/28 11:15:27;;;;;;;6.63;3.00;;;25.50;95.70;;;;;;4954542;29;20413;-74
2022/10/28 11:17:55;;;;;;;8.30;3.40;;;25.80;98.30;;;;;;4955020;28;20757;-74
2022/10/28 11:20:30;;;;;;;7.17;2.80;;;25.80;99.90;;;;;;4955792;28;20394;-74
2022/10/28 11:23:37;;;;;;;4.57;2.53;;;25.60;99.10;;;;;;4955545;28;20445;-74
2022/10/28 11:26:07;;;;;;;6.15;3.20;;;25.20;99.90;;;;;;4961496;28;20398;-74
2022/10/28 11:28:41;;;;;;;7.40;3.45;;;25.40;99.90;;;;;;4975764;23;20533;-74
2022/10/28 11:31:15;;;;;;;7.50;3.70;;;26.20;96.20;;;;;;4955022;29;20401;-75
2022/10/28 11:34:03;;;;;;;7.43;4.13;;;26.70;90.30;;;;;;4958090;28;20411;-74
2022/10/28 11:36:56;;;;;;;12.73;4.32;;;26.90;88.90;;;;;;4972765;28;20404;-74
2022/10/28 11:39:44;;;;;;;8.30;4.35;;;26.80;86.50;;;;;;4954939;28;20469;-74
2022/10/28 11:42:38;;;;;;;11.73;3.80;;;26.50;88.30;;;;;;4916930;29;20412;-74
2022/10/28 11:45:20;;;;;;;9.90;3.70;;;26.00;88.10;;;;;;4916882;29;20397;-74
2022/10/28 11:48:21;;;;;;;8.00;3.60;;;26.70;85.40;;;;;;4931237;29;20779;-74
2022/10/28 11:50:52;;;;;;;9.30;4.50;;;27.30;83.20;;;;;;4934821;29;20955;-75
2022/10/28 11:53:44;;;;;;;6.68;3.30;;;27.30;83.20;;;;;;4939231;29;21045;-75
2022/10/28 11:56:26;;;;;;;8.48;4.05;;;26.50;85.50;;;;;;4931343;29;21103;-75
2022/10/28 11:59:14;;;;;;;6.95;3.70;;;26.10;88.50;;;;;;4916641;29;20468;-75
2022/10/28 12:01:57;;;;;;;7.32;3.30;;;26.50;88.60;;;;;;4916688;29;20385;-76
2022/10/28 12:04:48;;;;;;;6.93;3.97;;;27.20;86.70;;;;;;4941291;28;20763;-76
2022/10/28 12:07:40;;;;;;;10.57;3.60;;;28.00;81.90;;;;;;4935405;29;20392;-75
2022/10/28 12:10:41;;;;;;;8.27;3.92;;;28.40;77.40;;;;;;4935292;29;20414;-73
2022/10/28 12:13:13;;;;;;;7.27;3.37;;;27.50;80.00;;;;;;4933801;29;20410;-74
2022/10/28 12:15:53;;;;;;;12.03;3.10;;;27.30;80.50;;;;;;4945133;29;20892;-75
2022/10/28 12:18:40;;;;;;;8.97;3.70;;;28.30;77.90;;;;;;4936628;28;20822;-74
2022/10/28 12:21:32;;;;;;;8.70;3.53;;;28.60;74.40;;;;;;4935145;29;20424;-75
2022/10/28 12:23:59;;;;;;;8.27;3.10;;;27.70;79.80;;;;;;4935327;29;20423;-75
2022/10/28 12:26:31;;;;;;;8.25;2.80;;;27.00;83.30;;;;;;4935797;29;20929;-75
2022/10/28 12:29:02;;;;;;;8.68;3.38;;;26.30;87.70;;;;;;4954292;28;20489;-75
2022/10/28 12:31:38;;;;;;;7.22;3.40;;;26.20;86.90;;;;;;4954131;29;20393;-75
2022/10/28 12:34:11;;;;;;;9.23;3.00;;;26.20;79.20;;;;;;4954000;28;20843;-75
2022/10/28 12:36:48;;;;;;;6.30;2.70;;;27.60;76.50;;;;;;4936581;29;20502;-75
2022/10/28 12:39:26;;;;;;;8.30;3.00;;;29.00;70.60;;;;;;4934912;29;20421;-71
2022/10/28 12:41:57;;;;;;;7.47;2.33;;;29.10;61.50;;;;;;4936764;29;20408;-73
2022/10/28 12:44:25;;;;;;;7.00;2.67;;;28.30;62.60;;;;;;4940227;29;20417;-73
2022/10/28 12:47:09;;;;;;;7.40;2.50;;;28.90;59.70;;;;;;4933937;29;20901;-73
2022/10/28 12:49:56;;;;;;;6.57;2.53;;;30.40;58.00;;;;;;4953441;28;20413;-75
2022/10/28 12:52:45;;;;;;;8.18;2.40;;;31.10;55.80;;;;;;4934658;29;20392;-76
2022/10/28 12:55:19;;;;;;;6.07;2.53;;;31.90;52.40;;;;;;4934922;29;20435;-76
2022/10/28 12:57:50;;;;;;;11.40;2.77;;;31.60;54.40;;;;;;4931150;29;20748;-76
2022/10/28 13:00:22;;;;;;;7.05;2.70;;;32.50;51.00;;;;;;4931305;29;20499;-75
2022/10/28 13:03:00;;;;;;;5.80;1.83;;;32.70;50.30;;;;;;4941180;29;20432;-75
2022/10/28 13:05:32;;;;;;;3.83;2.58;;;32.50;50.50;;;;;;4933234;29;20450;-75
2022/10/28 13:08:39;;;;;;;6.97;2.65;;;32.10;51.20;;;;;;4933432;29;20416;-74